createdAt,value
2019-02-10T00:01:01.533Z,95459.39
2019-02-10T00:03:28.898Z,95464.38
2019-02-10T00:05:56.341Z,95470.65
2019-02-10T00:08:23.830Z,95468.71
2019-02-10T00:10:51.183Z,95471.73
2019-02-10T00:13:26.016Z,95468.87
2019-02-10T00:15:53.478Z,95458.94
2019-02-10T00:18:20.923Z,95454.57
2019-02-10T00:20:48.429Z,95466.34
2019-02-10T00:23:15.847Z,95464.81
2019-02-10T00:25:43.272Z,95450.61
2019-02-10T00:28:10.641Z,95471.98
2019-02-10T00:30:38.171Z,95475.63
2019-02-10T00:33:05.609Z,95472.43
2019-02-10T00:35:33.023Z,95475.97
2019-02-10T00:38:00.466Z,95475.07
2019-02-10T00:40:27.939Z,95486.07
2019-02-10T00:42:55.361Z,95476.53
2019-02-10T00:45:22.803Z,95476.23
2019-02-10T00:47:50.204Z,95482.52
2019-02-10T00:50:17.654Z,95476.82
2019-02-10T00:52:45.183Z,95476.59
2019-02-10T00:55:12.590Z,95469.02
2019-02-10T00:57:40.000Z,95475.20
2019-02-10T01:00:07.993Z,95470.78
2019-02-10T01:02:35.420Z,95469.05
2019-02-10T01:05:02.838Z,95470.95
2019-02-10T01:07:30.419Z,95455.69
2019-02-10T01:09:57.781Z,95451.11
2019-02-10T01:12:25.262Z,95453.33
2019-02-10T01:14:52.684Z,95462.12
2019-02-10T01:17:20.061Z,95459.11
2019-02-10T01:19:47.468Z,95452.30
2019-02-10T01:22:15.036Z,95459.33
2019-02-10T01:24:42.495Z,95460.58
2019-02-10T01:27:10.238Z,95451.67
2019-02-10T01:29:37.784Z,95448.47
2019-02-10T01:32:05.356Z,95443.91
2019-02-10T01:34:32.750Z,95446.22
2019-02-10T01:37:00.215Z,95438.77
2019-02-10T01:39:27.852Z,95455.71
2019-02-10T01:41:55.308Z,95452.80
2019-02-10T01:44:22.720Z,95451.41
2019-02-10T01:46:50.103Z,95443.00
2019-02-10T01:49:17.499Z,95443.53
2019-02-10T01:51:44.958Z,95445.26
2019-02-10T01:54:12.517Z,95438.02
2019-02-10T01:56:40.123Z,95438.54
2019-02-10T01:59:07.544Z,95441.35
2019-02-10T02:01:34.971Z,95449.56
2019-02-10T02:04:02.391Z,95452.41
2019-02-10T02:06:29.851Z,95451.33
2019-02-10T02:08:57.303Z,95455.63
2019-02-10T02:11:24.759Z,95454.77
2019-02-10T02:13:52.250Z,95460.23
2019-02-10T02:16:19.707Z,95446.16
2019-02-10T02:18:47.157Z,95453.31
2019-02-10T02:21:14.556Z,95447.11
2019-02-10T02:23:41.995Z,95454.31
2019-02-10T02:26:09.427Z,95445.33
2019-02-10T02:28:36.865Z,95446.92
2019-02-10T02:31:04.348Z,95436.84
2019-02-10T02:33:31.806Z,95437.20
2019-02-10T02:35:59.209Z,95423.61
2019-02-10T02:38:26.641Z,95433.25
2019-02-10T02:40:54.125Z,95426.41
2019-02-10T02:43:21.546Z,95428.45
2019-02-10T02:45:48.955Z,95435.14
2019-02-10T02:48:16.424Z,95431.48
2019-02-10T02:50:43.810Z,95424.98
2019-02-10T02:53:11.281Z,95424.98
2019-02-10T02:55:38.815Z,95436.32
2019-02-10T02:58:06.199Z,95424.23
2019-02-10T03:00:33.685Z,95441.81
2019-02-10T03:03:01.171Z,95445.00
2019-02-10T03:05:28.551Z,95445.00
2019-02-10T03:07:56.005Z,95447.05
2019-02-10T03:10:23.474Z,95448.59
2019-02-10T03:12:50.843Z,95449.22
2019-02-10T03:15:18.262Z,95445.50
2019-02-10T03:17:45.685Z,95442.03
2019-02-10T03:20:13.129Z,95432.34
2019-02-10T03:22:40.510Z,95422.34
2019-02-10T03:25:08.105Z,95422.34
2019-02-10T03:27:35.545Z,95428.78
2019-02-10T03:30:03.081Z,95429.59
2019-02-10T03:32:30.539Z,95424.42
2019-02-10T03:34:57.972Z,95421.77
2019-02-10T03:37:27.193Z,95423.87
2019-02-10T03:39:54.963Z,95426.19
2019-02-10T03:42:22.821Z,95422.25
2019-02-10T03:44:50.215Z,95413.22
2019-02-10T03:47:17.652Z,95419.91
2019-02-10T03:49:45.081Z,95421.91
2019-02-10T03:52:12.546Z,95426.49
2019-02-10T03:54:40.045Z,95435.36
2019-02-10T03:57:07.606Z,95436.88
2019-02-10T03:59:35.064Z,95442.89
2019-02-10T04:02:02.456Z,95448.26
2019-02-10T04:04:30.285Z,95455.73
2019-02-10T04:06:57.750Z,95456.18
2019-02-10T04:09:25.117Z,95446.53
2019-02-10T04:11:52.573Z,95445.69
2019-02-10T04:14:20.027Z,95446.19
2019-02-10T04:16:47.406Z,95445.20
2019-02-10T04:19:14.829Z,95438.44
2019-02-10T04:21:42.249Z,95435.09
2019-02-10T04:24:09.745Z,95445.00
2019-02-10T04:26:37.188Z,95448.72
2019-02-10T04:29:05.859Z,95436.14
2019-02-10T04:31:33.317Z,95439.92
2019-02-10T04:34:00.798Z,95438.94
2019-02-10T04:36:28.222Z,95443.03
2019-02-10T04:38:55.808Z,95444.45
2019-02-10T04:41:23.374Z,95439.54
2019-02-10T04:43:50.840Z,95443.67
2019-02-10T04:46:18.452Z,95448.27
2019-02-10T04:48:45.863Z,95451.05
2019-02-10T04:51:13.301Z,95441.83
2019-02-10T04:53:40.750Z,95441.61
2019-02-10T04:56:15.618Z,95446.38
2019-02-10T04:58:43.174Z,95441.77
2019-02-10T05:01:10.627Z,95449.59
2019-02-10T05:03:38.203Z,95448.34
2019-02-10T05:06:05.564Z,95444.20
2019-02-10T05:08:33.004Z,95445.23
2019-02-10T05:11:00.465Z,95457.47
2019-02-10T05:13:27.832Z,95457.84
2019-02-10T05:15:55.269Z,95455.47
2019-02-10T05:18:23.249Z,95473.02
2019-02-10T05:20:50.670Z,95472.00
2019-02-10T05:23:18.202Z,95466.08
2019-02-10T05:25:45.667Z,95473.16
2019-02-10T05:28:13.091Z,95474.67
2019-02-10T05:30:40.510Z,95471.42
2019-02-10T05:33:07.964Z,95471.53
2019-02-10T05:35:35.412Z,95471.53
2019-02-10T05:38:04.481Z,95480.53
2019-02-10T05:40:32.312Z,95485.23
2019-02-10T05:42:59.791Z,95481.75
2019-02-10T05:45:27.230Z,95483.85
2019-02-10T05:47:54.676Z,95476.45
2019-02-10T05:50:22.152Z,95479.95
2019-02-10T05:52:49.523Z,95486.32
2019-02-10T05:55:17.059Z,95484.70
2019-02-10T05:57:44.535Z,95491.95
2019-02-10T06:00:12.173Z,95482.05
2019-02-10T06:02:39.597Z,95480.45
2019-02-10T06:05:19.273Z,95498.48
2019-02-10T06:07:46.766Z,95500.97
2019-02-10T06:10:14.243Z,95487.98
2019-02-10T06:12:41.832Z,95506.28
2019-02-10T06:15:09.692Z,95496.38
2019-02-10T06:17:37.270Z,95500.51
2019-02-10T06:20:05.306Z,95497.78
2019-02-10T06:22:32.735Z,95504.56
2019-02-10T06:25:00.256Z,95503.50
2019-02-10T06:27:27.749Z,95504.84
2019-02-10T06:29:55.287Z,95508.00
2019-02-10T06:32:22.765Z,95518.49
2019-02-10T06:34:50.158Z,95511.27
2019-02-10T06:37:17.609Z,95517.77
2019-02-10T06:39:45.314Z,95514.05
2019-02-10T06:42:13.016Z,95508.86
2019-02-10T06:44:40.503Z,95508.09
2019-02-10T06:47:07.857Z,95502.23
2019-02-10T06:49:35.306Z,95515.23
2019-02-10T06:52:02.769Z,95521.72
2019-02-10T06:54:30.149Z,95521.52
2019-02-10T06:56:57.607Z,95513.89
2019-02-10T06:59:53.211Z,95522.82
2019-02-10T07:02:39.857Z,95518.23
2019-02-10T07:05:08.956Z,95521.69
2019-02-10T07:07:36.423Z,95519.80
2019-02-10T07:10:04.878Z,95516.19
2019-02-10T07:12:48.930Z,95532.59
2019-02-10T07:15:52.936Z,95533.16
2019-02-10T07:18:57.142Z,95523.05
2019-02-10T07:21:28.766Z,95519.25
2019-02-10T07:23:58.913Z,95535.06
2019-02-10T07:27:09.797Z,95535.85
2019-02-10T07:30:33.554Z,95532.03
2019-02-10T07:33:03.978Z,95525.54
2019-02-10T07:36:20.787Z,95524.97
2019-02-10T07:39:32.119Z,95529.32
2019-02-10T07:42:25.687Z,95522.06
2019-02-10T07:45:25.549Z,95528.14
2019-02-10T07:48:10.059Z,95519.13
2019-02-10T07:51:10.594Z,95519.55
2019-02-10T07:54:10.328Z,95512.41
2019-02-10T07:57:05.614Z,95524.16
2019-02-10T08:00:00.740Z,95519.41
2019-02-10T08:03:09.532Z,95520.02
2019-02-10T08:06:02.068Z,95520.02
2019-02-10T08:09:01.429Z,95519.63
2019-02-10T08:11:48.041Z,95514.24
2019-02-10T08:14:53.408Z,95515.66
2019-02-10T08:17:53.625Z,95514.92
2019-02-10T08:20:56.260Z,95515.20
2019-02-10T08:24:00.692Z,95507.67
2019-02-10T08:27:27.921Z,95503.31
2019-02-10T08:30:38.767Z,95511.67
2019-02-10T08:33:43.079Z,95504.61
2019-02-10T08:36:55.445Z,95505.09
2019-02-10T08:39:46.190Z,95493.48
2019-02-10T08:42:40.769Z,95501.38
2019-02-10T08:45:24.591Z,95500.95
2019-02-10T08:48:26.683Z,95502.98
2019-02-10T08:51:43.656Z,95508.73
2019-02-10T08:54:11.634Z,95502.36
2019-02-10T08:56:39.111Z,95506.92
2019-02-10T08:59:06.554Z,95502.39
2019-02-10T09:01:34.019Z,95501.11
2019-02-10T09:04:01.591Z,95506.52
2019-02-10T09:06:29.568Z,95505.78
2019-02-10T09:09:02.412Z,95496.48
2019-02-10T09:11:26.439Z,95502.78
2019-02-10T09:13:53.878Z,95496.25
2019-02-10T09:16:21.320Z,95502.44
2019-02-10T09:18:48.673Z,95492.88
2019-02-10T09:21:16.129Z,95501.50
2019-02-10T09:23:43.602Z,95495.35
2019-02-10T09:26:11.087Z,95491.34
2019-02-10T09:28:38.566Z,95492.38
2019-02-10T09:31:05.949Z,95489.15
2019-02-10T09:33:33.416Z,95477.49
2019-02-10T09:36:00.900Z,95486.31
2019-02-10T09:38:28.329Z,95487.46
2019-02-10T09:40:55.772Z,95483.80
2019-02-10T09:43:23.205Z,95479.20
2019-02-10T09:45:50.737Z,95474.19
2019-02-10T09:48:18.165Z,95477.78
2019-02-10T09:50:45.634Z,95473.14
2019-02-10T09:53:13.077Z,95472.26
2019-02-10T09:55:40.540Z,95475.69
2019-02-10T09:58:07.971Z,95465.63
2019-02-10T10:00:35.460Z,95464.80
2019-02-10T10:03:02.871Z,95466.44
2019-02-10T10:05:30.343Z,95457.57
2019-02-10T10:07:57.888Z,95462.73
2019-02-10T10:10:25.344Z,95443.56
2019-02-10T10:12:52.896Z,95447.72
2019-02-10T10:15:20.340Z,95432.52
2019-02-10T10:17:47.869Z,95439.56
2019-02-10T10:20:15.656Z,95435.81
2019-02-10T10:22:43.086Z,95430.59
2019-02-10T10:25:10.651Z,95428.05
2019-02-10T10:27:38.097Z,95422.48
2019-02-10T10:30:07.745Z,95412.12
2019-02-10T10:32:35.236Z,95413.95
2019-02-10T10:35:02.816Z,95406.22
2019-02-10T10:37:30.396Z,95402.51
2019-02-10T10:39:57.845Z,95397.30
2019-02-10T10:42:25.428Z,95396.42
2019-02-10T10:44:52.929Z,95400.22
2019-02-10T10:47:20.377Z,95398.05
2019-02-10T10:49:47.883Z,95396.48
2019-02-10T10:52:15.281Z,95388.69
2019-02-10T10:54:43.116Z,95389.55
2019-02-10T10:57:10.693Z,95385.43
2019-02-10T10:59:38.229Z,95369.69
2019-02-10T11:02:05.693Z,95369.40
2019-02-10T11:04:33.165Z,95361.23
2019-02-10T11:07:00.610Z,95364.31
2019-02-10T11:09:35.463Z,95367.60
2019-02-10T11:11:57.490Z,95351.41
2019-02-10T11:14:25.062Z,95356.58
2019-02-10T11:16:52.475Z,95356.53
2019-02-10T11:19:19.966Z,95352.37
2019-02-10T11:21:47.424Z,95355.19
2019-02-10T11:24:14.875Z,95342.05
2019-02-10T11:26:42.307Z,95341.17
2019-02-10T11:29:09.811Z,95342.05
2019-02-10T11:31:37.264Z,95338.03
2019-02-10T11:34:04.687Z,95329.59
2019-02-10T11:36:32.131Z,95325.92
2019-02-10T11:38:59.610Z,95319.73
2019-02-10T11:41:27.163Z,95319.02
2019-02-10T11:43:54.742Z,95314.28
2019-02-10T11:46:22.268Z,95293.89
2019-02-10T11:48:49.748Z,95300.09
2019-02-10T11:51:17.242Z,95297.81
2019-02-10T11:53:44.732Z,95306.01
2019-02-10T11:56:12.221Z,95309.54
2019-02-10T11:58:39.834Z,95295.12
2019-02-10T12:01:07.298Z,95297.05
2019-02-10T12:03:35.215Z,95281.27
2019-02-10T12:06:02.683Z,95284.73
2019-02-10T12:08:35.590Z,95284.88
2019-02-10T12:10:59.846Z,95291.20
2019-02-10T12:13:27.312Z,95287.27
2019-02-10T12:15:54.817Z,95279.20
2019-02-10T12:18:22.416Z,95278.94
2019-02-10T12:20:52.320Z,95266.47
2019-02-10T12:23:19.824Z,95269.49
2019-02-10T12:25:47.323Z,95254.30
2019-02-10T12:28:14.924Z,95260.61
2019-02-10T12:30:42.455Z,95257.77
2019-02-10T12:33:09.923Z,95250.38
2019-02-10T12:35:38.735Z,95249.78
2019-02-10T12:38:06.254Z,95243.88
2019-02-10T12:40:33.738Z,95249.01
2019-02-10T12:43:01.191Z,95236.19
2019-02-10T12:45:30.029Z,95235.86
2019-02-10T12:47:58.373Z,95235.36
2019-02-10T12:50:27.037Z,95231.89
2019-02-10T12:52:54.484Z,95230.11
2019-02-10T12:55:22.881Z,95228.20
2019-02-10T12:57:52.338Z,95228.66
2019-02-10T13:00:19.934Z,95220.08
2019-02-10T13:02:47.596Z,95214.67
2019-02-10T13:05:15.237Z,95214.63
2019-02-10T13:07:42.849Z,95211.11
2019-02-10T13:10:11.849Z,95213.17
2019-02-10T13:12:39.516Z,95212.09
2019-02-10T13:15:08.248Z,95217.77
2019-02-10T13:17:35.730Z,95214.49
2019-02-10T13:20:04.011Z,95217.52
2019-02-10T13:22:31.467Z,95211.92
2019-02-10T13:24:58.953Z,95205.59
2019-02-10T13:27:26.451Z,95204.55
2019-02-10T13:29:54.032Z,95200.76
2019-02-10T13:32:21.576Z,95195.64
2019-02-10T13:34:49.040Z,95197.27
2019-02-10T13:37:19.246Z,95199.53
2019-02-10T13:39:47.013Z,95197.59
2019-02-10T13:42:14.560Z,95200.26
2019-02-10T13:44:42.379Z,95202.69
2019-02-10T13:47:09.867Z,95196.67
2019-02-10T13:49:37.447Z,95196.09
2019-02-10T13:52:04.886Z,95187.05
2019-02-10T13:54:32.421Z,95185.84
2019-02-10T13:56:59.975Z,95181.12
2019-02-10T13:59:27.561Z,95183.70
2019-02-10T14:01:55.132Z,95185.59
2019-02-10T14:04:22.779Z,95192.73
2019-02-10T14:06:50.266Z,95182.92
2019-02-10T14:09:17.870Z,95174.20
2019-02-10T14:11:45.331Z,95179.67
2019-02-10T14:14:12.939Z,95173.63
2019-02-10T14:16:40.411Z,95180.27
2019-02-10T14:19:08.050Z,95179.98
2019-02-10T14:21:35.526Z,95166.25
2019-02-10T14:24:02.981Z,95170.59
2019-02-10T14:26:30.511Z,95162.45
2019-02-10T14:28:57.958Z,95172.02
2019-02-10T14:31:25.463Z,95167.30
2019-02-10T14:33:52.951Z,95165.02
2019-02-10T14:36:20.475Z,95165.02
2019-02-10T14:38:47.906Z,95167.56
2019-02-10T14:41:15.381Z,95159.94
2019-02-10T14:43:42.934Z,95157.21
2019-02-10T14:46:10.498Z,95150.49
2019-02-10T14:48:37.904Z,95157.92
2019-02-10T14:51:05.371Z,95150.73
2019-02-10T14:53:32.871Z,95146.98
2019-02-10T14:56:00.312Z,95144.00
2019-02-10T14:58:27.815Z,95150.02
2019-02-10T15:00:55.291Z,95158.01
2019-02-10T15:03:22.815Z,95155.61
2019-02-10T15:05:50.275Z,95146.56
2019-02-10T15:08:17.716Z,95139.20
2019-02-10T15:10:45.397Z,95142.66
2019-02-10T15:13:13.151Z,95140.88
2019-02-10T15:15:40.662Z,95142.08
2019-02-10T15:18:08.146Z,95138.60
2019-02-10T15:20:35.629Z,95135.60
2019-02-10T15:23:03.131Z,95134.23
2019-02-10T15:25:30.653Z,95138.56
2019-02-10T15:27:58.030Z,95134.81
2019-02-10T15:30:25.476Z,95129.98
2019-02-10T15:32:52.934Z,95119.72
2019-02-10T15:35:20.303Z,95133.71
2019-02-10T15:37:47.999Z,95124.34
2019-02-10T15:40:15.456Z,95120.75
2019-02-10T15:42:43.473Z,95128.41
2019-02-10T15:45:11.238Z,95127.78
2019-02-10T15:47:38.879Z,95131.41
2019-02-10T15:50:07.406Z,95120.24
2019-02-10T15:52:34.928Z,95126.58
2019-02-10T15:55:02.416Z,95116.76
2019-02-10T15:57:29.866Z,95121.53
2019-02-10T15:59:57.353Z,95119.45
2019-02-10T16:02:24.941Z,95130.81
2019-02-10T16:04:52.440Z,95121.98
2019-02-10T16:07:19.911Z,95127.75
2019-02-10T16:09:47.546Z,95129.06
2019-02-10T16:12:15.116Z,95125.28
2019-02-10T16:14:42.543Z,95120.31
2019-02-10T16:17:09.994Z,95125.11
2019-02-10T16:19:37.451Z,95118.30
2019-02-10T16:22:05.150Z,95120.21
2019-02-10T16:24:32.600Z,95124.30
2019-02-10T16:27:00.390Z,95126.53
2019-02-10T16:29:28.429Z,95124.85
2019-02-10T16:31:55.993Z,95123.32
2019-02-10T16:34:23.479Z,95114.35
2019-02-10T16:36:51.058Z,95121.70
2019-02-10T16:39:18.413Z,95113.73
2019-02-10T16:41:45.891Z,95115.41
2019-02-10T16:44:13.386Z,95123.53
2019-02-10T16:46:40.843Z,95132.40
2019-02-10T16:49:08.540Z,95119.38
2019-02-10T16:51:36.106Z,95121.97
2019-02-10T16:54:03.484Z,95112.95
2019-02-10T16:56:30.974Z,95124.14
2019-02-10T16:58:58.901Z,95116.07
2019-02-10T17:01:26.382Z,95109.89
2019-02-10T17:03:53.840Z,95116.84
2019-02-10T17:06:21.288Z,95112.10
2019-02-10T17:08:48.767Z,95097.22
2019-02-10T17:11:16.276Z,95113.69
2019-02-10T17:13:43.706Z,95099.13
2019-02-10T17:16:11.203Z,95111.11
2019-02-10T17:18:38.612Z,95099.48
2019-02-10T17:21:06.083Z,95100.36
2019-02-10T17:23:34.083Z,95101.22
2019-02-10T17:26:01.724Z,95091.22
2019-02-10T17:28:29.119Z,95103.05
2019-02-10T17:30:56.548Z,95088.95
2019-02-10T17:33:23.969Z,95098.30
2019-02-10T17:35:51.461Z,95085.86
2019-02-10T17:38:18.931Z,95090.06
2019-02-10T17:40:52.884Z,95092.66
2019-02-10T17:43:27.993Z,95085.53
2019-02-10T17:45:50.088Z,95090.08
2019-02-10T17:48:17.514Z,95088.00
2019-02-10T17:50:45.086Z,95085.19
2019-02-10T17:53:12.610Z,95091.73
2019-02-10T17:55:40.074Z,95077.18
2019-02-10T17:58:07.669Z,95079.59
2019-02-10T18:00:39.422Z,95081.22
2019-02-10T18:03:07.110Z,95078.80
2019-02-10T18:05:35.390Z,95087.53
2019-02-10T18:08:02.910Z,95084.41
2019-02-10T18:10:30.856Z,95086.83
2019-02-10T18:12:58.388Z,95077.17
2019-02-10T18:15:54.501Z,95083.73
2019-02-10T18:18:28.107Z,95088.69
2019-02-10T18:21:08.369Z,95091.75
2019-02-10T18:24:00.913Z,95079.54
2019-02-10T18:26:47.979Z,95082.34
2019-02-10T18:29:36.443Z,95084.55
2019-02-10T18:32:19.956Z,95081.50
2019-02-10T18:35:05.504Z,95068.44
2019-02-10T18:38:07.942Z,95080.56
2019-02-10T18:40:49.031Z,95072.66
2019-02-10T18:43:39.093Z,95069.13
2019-02-10T18:46:19.895Z,95058.22
2019-02-10T18:49:07.211Z,95075.69
2019-02-10T18:52:03.144Z,95066.11
2019-02-10T18:54:50.161Z,95052.74
2019-02-10T18:57:25.360Z,95056.52
2019-02-10T19:00:24.445Z,95049.51
2019-02-10T19:03:20.054Z,95053.09
2019-02-10T19:06:19.144Z,95061.00
2019-02-10T19:09:03.780Z,95057.31
2019-02-10T19:11:36.024Z,95058.92
2019-02-10T19:14:23.060Z,95057.44
2019-02-10T19:17:10.038Z,95059.34
2019-02-10T19:20:15.352Z,95062.64
2019-02-10T19:23:00.772Z,95069.25
2019-02-10T19:25:34.595Z,95064.56
2019-02-10T19:28:20.405Z,95072.89
2019-02-10T19:30:53.964Z,95061.05
2019-02-10T19:33:46.966Z,95059.27
2019-02-10T19:36:32.447Z,95053.50
2019-02-10T19:39:21.486Z,95064.36
2019-02-10T19:42:01.093Z,95064.19
2019-02-10T19:44:49.044Z,95070.59
2019-02-10T19:47:39.155Z,95062.51
2019-02-10T19:50:29.323Z,95061.09
2019-02-10T19:53:15.010Z,95057.05
2019-02-10T19:55:51.003Z,95060.66
2019-02-10T19:58:40.775Z,95074.34
2019-02-10T20:01:28.151Z,95072.13
2019-02-10T20:04:19.892Z,95065.05
2019-02-10T20:07:06.958Z,95049.09
2019-02-10T20:09:44.525Z,95036.80
2019-02-10T20:12:43.854Z,95038.04
2019-02-10T20:15:39.959Z,95036.03
2019-02-10T20:18:29.941Z,95025.77
2019-02-10T20:21:16.942Z,95013.65
2019-02-10T20:23:51.266Z,95017.67
2019-02-10T20:26:49.566Z,95022.81
2019-02-10T20:29:22.731Z,95020.34
2019-02-10T20:32:15.913Z,95010.02
2019-02-10T20:35:09.050Z,95016.72
2019-02-10T20:38:02.188Z,95014.03
2019-02-10T20:40:49.165Z,95016.14
2019-02-10T20:43:45.437Z,95024.22
2019-02-10T20:46:21.632Z,95014.20
2019-02-10T20:49:08.582Z,95005.98
2019-02-10T20:51:44.577Z,95014.31
2019-02-10T20:54:30.392Z,95001.05
2019-02-10T20:57:16.048Z,95008.31
2019-02-10T20:59:57.291Z,95004.00
2019-02-10T21:02:47.000Z,94986.19
2019-02-10T21:05:36.113Z,94995.02
2019-02-10T21:08:30.188Z,94992.23
2019-02-10T21:11:28.926Z,94990.39
2019-02-10T21:14:21.792Z,94983.67
2019-02-10T21:17:11.283Z,94960.28
2019-02-10T21:20:01.271Z,94968.08
2019-02-10T21:22:39.808Z,94956.72
2019-02-10T21:25:25.026Z,94969.97
2019-02-10T21:28:08.005Z,94958.56
2019-02-10T21:30:53.806Z,94957.52
2019-02-10T21:33:49.540Z,94958.83
2019-02-10T21:36:28.554Z,94953.70
2019-02-10T21:39:14.633Z,94956.95
2019-02-10T21:41:52.416Z,94949.33
2019-02-10T21:44:26.524Z,94945.77
2019-02-10T21:47:16.591Z,94948.86
2019-02-10T21:49:44.141Z,94951.98
2019-02-10T21:52:11.588Z,94945.64
2019-02-10T21:54:39.128Z,94942.56
2019-02-10T21:57:07.073Z,94956.37
2019-02-10T21:59:34.613Z,94940.36
2019-02-10T22:02:02.054Z,94935.05
2019-02-10T22:04:29.500Z,94920.19
2019-02-10T22:06:56.914Z,94921.49
2019-02-10T22:09:24.439Z,94914.55
2019-02-10T22:11:51.880Z,94919.67
2019-02-10T22:14:19.294Z,94922.02
2019-02-10T22:16:46.775Z,94915.82
2019-02-10T22:19:14.228Z,94915.45
2019-02-10T22:21:41.613Z,94905.78
2019-02-10T22:24:09.071Z,94907.19
2019-02-10T22:26:36.496Z,94907.88
2019-02-10T22:29:03.895Z,94910.75
2019-02-10T22:31:31.300Z,94911.19
2019-02-10T22:33:58.725Z,94912.13
2019-02-10T22:36:26.165Z,94894.85
2019-02-10T22:38:53.589Z,94881.81
2019-02-10T22:41:20.994Z,94880.89
2019-02-10T22:43:48.422Z,94886.45
2019-02-10T22:46:15.857Z,94893.95
2019-02-10T22:48:43.423Z,94902.25
2019-02-10T22:51:10.937Z,94891.22
2019-02-10T22:53:38.320Z,94883.21
2019-02-10T22:56:05.736Z,94879.36
2019-02-10T22:58:33.163Z,94869.70
2019-02-10T23:01:04.456Z,94878.81
2019-02-10T23:03:31.930Z,94872.22
2019-02-10T23:05:59.461Z,94873.79
2019-02-10T23:08:26.821Z,94876.94
2019-02-10T23:10:54.322Z,94878.15
2019-02-10T23:13:21.753Z,94875.20
2019-02-10T23:15:49.108Z,94877.33
2019-02-10T23:18:16.507Z,94879.84
2019-02-10T23:20:43.907Z,94871.50
2019-02-10T23:23:11.298Z,94876.78
2019-02-10T23:25:38.718Z,94873.06
2019-02-10T23:28:06.158Z,94869.46
2019-02-10T23:30:33.497Z,94870.20
2019-02-10T23:33:00.915Z,94864.80
2019-02-10T23:35:28.428Z,94863.42
2019-02-10T23:37:55.833Z,94854.06
2019-02-10T23:40:23.241Z,94854.19
2019-02-10T23:42:50.576Z,94846.48
2019-02-10T23:45:18.091Z,94845.14
2019-02-10T23:47:45.507Z,94836.91
2019-02-10T23:50:12.982Z,94840.73
2019-02-10T23:52:40.441Z,94849.16
2019-02-10T23:55:07.965Z,94849.72
2019-02-10T23:57:35.409Z,94858.91
